Time;durP1;ratioP1;P1;durP2;ratioP2;P2;SDS_P1;SDS_P2;PMS_P1;PMS_P2;Temp;Humidity;BMP_temperature;BMP_pressure;BME280_temperature;BME280_humidity;BME280_pressure;Samples;Min_cycle;Max_cycle;Signal;HPM_P1;HPM_P2
2022/06/02 00:01:12;;;;;;;10.48;4.60;;;21.30;51.20;;;;;;5059931;28;20387;-63
2022/06/02 00:03:49;;;;;;;12.00;4.38;;;21.20;51.20;;;;;;5057799;28;20603;-63
2022/06/02 00:06:33;;;;;;;11.68;4.32;;;21.20;51.20;;;;;;5061480;28;20032;-63
2022/06/02 00:09:22;;;;;;;10.10;4.38;;;21.20;51.20;;;;;;5060197;28;20043;-63
2022/06/02 00:12:00;;;;;;;11.20;4.68;;;21.20;51.30;;;;;;5062733;28;20154;-63
2022/06/02 00:14:29;;;;;;;11.13;4.18;;;21.20;51.30;;;;;;5057481;28;20028;-63
2022/06/02 00:17:10;;;;;;;9.70;4.43;;;21.20;51.40;;;;;;5063206;28;20032;-63
2022/06/02 00:19:49;;;;;;;10.15;4.07;;;21.20;51.40;;;;;;5059723;28;20048;-63
2022/06/02 00:22:30;;;;;;;9.77;4.47;;;21.20;51.40;;;;;;5061753;28;20540;-63
2022/06/02 00:25:27;;;;;;;9.40;4.47;;;21.20;51.40;;;;;;5072464;28;20385;-63
2022/06/02 00:28:07;;;;;;;12.95;4.95;;;21.10;51.50;;;;;;5056399;28;20611;-63
2022/06/02 00:30:40;;;;;;;11.55;4.15;;;21.10;51.50;;;;;;5075486;28;20448;-63
2022/06/02 00:33:34;;;;;;;11.50;4.15;;;21.20;51.50;;;;;;5047417;28;20012;-63
2022/06/02 00:36:05;;;;;;;10.73;4.20;;;21.10;51.50;;;;;;5053173;28;20501;-63
2022/06/02 00:38:34;;;;;;;10.73;4.28;;;21.10;51.50;;;;;;5070763;28;20179;-63
2022/06/02 00:41:22;;;;;;;9.93;4.07;;;21.10;51.50;;;;;;5056725;28;20037;-63
2022/06/02 00:44:29;;;;;;;10.50;4.32;;;21.10;51.50;;;;;;5055880;28;20028;-63
2022/06/02 00:46:58;;;;;;;9.50;4.07;;;21.10;51.60;;;;;;5043534;28;20044;-63
2022/06/02 00:50:00;;;;;;;8.70;4.00;;;21.10;51.60;;;;;;5044368;28;20045;-63
2022/06/02 00:52:28;;;;;;;9.10;3.92;;;21.00;51.60;;;;;;5035650;28;20859;-63
2022/06/02 00:58:11;;;;;;;9.23;3.90;;;21.00;51.70;;;;;;5041773;28;20881;-63
2022/06/02 01:00:43;;;;;;;9.13;4.10;;;21.00;51.60;;;;;;5036599;28;20433;-63
2022/06/02 01:03:19;;;;;;;10.00;4.13;;;21.00;51.70;;;;;;5037352;28;20048;-63
2022/06/02 01:05:51;;;;;;;9.55;4.05;;;21.00;51.70;;;;;;5037815;28;20047;-63
2022/06/02 01:08:33;;;;;;;10.55;3.97;;;21.00;51.80;;;;;;5032909;28;20025;-63
2022/06/02 01:11:07;;;;;;;10.10;4.20;;;21.00;51.80;;;;;;5038458;28;20041;-63
2022/06/02 01:13:49;;;;;;;10.45;3.83;;;21.00;51.80;;;;;;5038065;28;20040;-63
2022/06/02 01:16:44;;;;;;;9.35;4.00;;;20.90;51.70;;;;;;5036215;28;20029;-63
2022/06/02 01:19:10;;;;;;;8.97;3.93;;;21.00;51.90;;;;;;5055358;28;20032;-63
2022/06/02 01:22:09;;;;;;;9.63;4.05;;;20.90;51.80;;;;;;5055374;28;20275;-63
2022/06/02 01:25:13;;;;;;;8.52;3.90;;;20.90;51.80;;;;;;5053512;28;20028;-63
2022/06/02 01:27:54;;;;;;;8.82;3.92;;;20.90;51.90;;;;;;5059541;28;20021;-63
2022/06/02 01:30:44;;;;;;;9.25;3.83;;;20.90;51.80;;;;;;5054827;28;20066;-63
2022/06/02 01:33:28;;;;;;;8.80;3.83;;;20.90;52.00;;;;;;5061211;28;20548;-63
2022/06/02 01:35:54;;;;;;;8.00;3.80;;;20.90;51.90;;;;;;5044727;28;20485;-63
2022/06/02 01:38:37;;;;;;;8.82;3.75;;;20.90;52.00;;;;;;5058304;28;20051;-63
2022/06/02 01:41:32;;;;;;;8.23;3.80;;;20.90;51.90;;;;;;5060675;28;20028;-63
2022/06/02 01:43:58;;;;;;;9.65;3.80;;;20.90;51.90;;;;;;5057062;28;20075;-63
2022/06/02 01:46:26;;;;;;;10.05;3.67;;;20.80;51.90;;;;;;5062545;28;20064;-63
2022/06/02 01:49:14;;;;;;;9.60;3.72;;;20.80;51.90;;;;;;5058103;28;20124;-63
2022/06/02 01:51:55;;;;;;;10.45;3.88;;;20.80;51.90;;;;;;5057058;28;20432;-63
2022/06/02 01:54:33;;;;;;;10.02;3.92;;;20.80;51.80;;;;;;5053296;28;20025;-63
2022/06/02 01:57:05;;;;;;;8.60;3.78;;;20.80;51.80;;;;;;5057084;28;20559;-63
2022/06/02 01:59:52;;;;;;;9.25;3.95;;;20.80;51.90;;;;;;5070470;28;20051;-63
2022/06/02 02:02:35;;;;;;;8.77;3.85;;;20.80;51.90;;;;;;5059595;28;20546;-63
2022/06/02 02:05:25;;;;;;;8.40;3.80;;;20.80;51.90;;;;;;5059240;28;20086;-63
2022/06/02 02:07:55;;;;;;;9.73;3.92;;;20.80;52.00;;;;;;5055272;28;20048;-63
2022/06/02 02:10:51;;;;;;;8.32;4.15;;;20.70;51.90;;;;;;5070644;28;20052;-63
2022/06/02 02:13:38;;;;;;;9.32;3.75;;;20.70;51.90;;;;;;5056002;28;20162;-63
2022/06/02 02:16:06;;;;;;;8.80;3.85;;;20.70;53.00;;;;;;5060929;28;20032;-63
2022/06/02 02:19:07;;;;;;;8.57;3.40;;;20.70;52.00;;;;;;5057529;28;20112;-63
2022/06/02 02:21:48;;;;;;;10.13;3.75;;;20.70;52.10;;;;;;5063671;28;20099;-63
2022/06/02 02:24:51;;;;;;;9.63;3.80;;;20.70;52.00;;;;;;5061636;28;20032;-63
2022/06/02 02:27:21;;;;;;;8.88;3.70;;;20.70;52.10;;;;;;5058603;28;20107;-63
2022/06/02 02:30:16;;;;;;;8.75;3.35;;;20.70;52.10;;;;;;5059147;28;20029;-63
2022/06/02 02:33:04;;;;;;;9.80;3.60;;;20.70;52.10;;;;;;5068402;28;20036;-63
2022/06/02 02:36:02;;;;;;;7.95;3.50;;;20.60;52.00;;;;;;5061930;28;20029;-63
2022/06/02 02:39:01;;;;;;;7.93;3.50;;;20.60;52.10;;;;;;5057811;28;20029;-63
2022/06/02 02:41:36;;;;;;;8.60;3.40;;;20.70;52.10;;;;;;5066680;28;20027;-63
2022/06/02 02:44:36;;;;;;;8.43;3.60;;;20.60;52.20;;;;;;5059169;28;20048;-63
2022/06/02 02:47:09;;;;;;;7.20;3.30;;;20.60;52.10;;;;;;5015770;28;20041;-63
2022/06/02 02:49:56;;;;;;;8.65;3.35;;;20.60;52.10;;;;;;5006253;28;20071;-63
2022/06/02 02:52:31;;;;;;;10.43;3.92;;;20.60;52.20;;;;;;5019778;28;20099;-63
2022/06/02 02:55:15;;;;;;;8.02;3.42;;;20.60;52.30;;;;;;5021092;28;20632;-63
2022/06/02 02:58:15;;;;;;;8.45;3.50;;;20.60;52.30;;;;;;5021284;28;20041;-63
2022/06/02 03:01:00;;;;;;;8.05;3.53;;;20.60;52.30;;;;;;5020811;28;20039;-63
2022/06/02 03:03:40;;;;;;;7.60;3.55;;;20.60;52.30;;;;;;5019319;28;20503;-63
2022/06/02 03:06:27;;;;;;;6.80;3.22;;;20.60;52.30;;;;;;4987476;28;20037;-61
2022/06/02 03:09:05;;;;;;;9.05;3.28;;;20.50;52.30;;;;;;5020753;28;20112;-62
2022/06/02 03:11:33;;;;;;;8.00;3.40;;;20.50;52.30;;;;;;5022451;28;20141;-62
2022/06/02 03:14:12;;;;;;;8.13;3.50;;;20.50;52.30;;;;;;5022917;28;20397;-63
2022/06/02 03:16:38;;;;;;;6.95;3.30;;;20.50;52.30;;;;;;5023059;28;20522;-62
2022/06/02 03:19:35;;;;;;;10.27;3.60;;;20.50;52.30;;;;;;5018559;28;20616;-62
2022/06/02 03:22:36;;;;;;;8.77;3.60;;;20.50;52.30;;;;;;5008133;28;20393;-63
2022/06/02 03:25:06;;;;;;;9.20;3.50;;;20.50;52.30;;;;;;5065891;28;20057;-62
2022/06/02 03:28:03;;;;;;;8.65;3.28;;;20.50;52.30;;;;;;5062150;28;20495;-62
2022/06/02 03:30:34;;;;;;;7.63;3.15;;;20.50;52.30;;;;;;5057394;28;20139;-62
2022/06/02 03:33:11;;;;;;;9.27;3.60;;;20.50;52.50;;;;;;5062492;28;20078;-62
2022/06/02 03:35:50;;;;;;;8.23;3.33;;;20.50;52.50;;;;;;5065837;28;20032;-63
2022/06/02 03:38:23;;;;;;;8.75;3.22;;;20.50;52.50;;;;;;5062834;28;20036;-62
2022/06/02 03:41:01;;;;;;;7.82;3.28;;;20.40;52.40;;;;;;5069598;28;20147;-62
2022/06/02 03:43:48;;;;;;;9.23;3.35;;;20.50;52.50;;;;;;5062533;28;20029;-62
2022/06/02 03:46:52;;;;;;;7.40;3.40;;;20.40;52.40;;;;;;5070964;28;20443;-63
2022/06/02 03:49:44;;;;;;;7.72;3.17;;;20.40;52.50;;;;;;5042139;28;20071;-63
2022/06/02 03:52:28;;;;;;;6.97;3.53;;;20.40;52.60;;;;;;5039282;28;20127;-62
2022/06/02 03:55:14;;;;;;;6.68;3.38;;;20.40;52.60;;;;;;5044180;28;20035;-62
2022/06/02 03:57:43;;;;;;;7.00;3.10;;;20.40;52.60;;;;;;5030467;28;20036;-62
2022/06/02 04:00:22;;;;;;;10.52;3.25;;;20.40;52.70;;;;;;5040081;28;20040;-62
2022/06/02 04:03:04;;;;;;;8.80;3.30;;;20.40;52.70;;;;;;5039638;28;20115;-62
2022/06/02 04:06:02;;;;;;;6.95;3.25;;;20.40;52.70;;;;;;5044604;28;20492;-62
2022/06/02 04:09:02;;;;;;;7.15;3.03;;;20.40;52.70;;;;;;5007084;28;20044;-62
2022/06/02 04:14:54;;;;;;;9.23;3.60;;;20.40;52.80;;;;;;5008966;28;20112;-62
2022/06/02 04:17:32;;;;;;;8.88;3.42;;;20.30;52.80;;;;;;5004785;28;20034;-63
2022/06/02 04:20:34;;;;;;;8.23;3.83;;;20.40;52.80;;;;;;4973317;28;20033;-63
2022/06/02 04:23:02;;;;;;;10.05;3.33;;;20.30;52.90;;;;;;4997251;28;20041;-62
2022/06/02 04:25:54;;;;;;;8.07;3.33;;;20.40;53.00;;;;;;5014223;28;20080;-62
2022/06/02 04:28:27;;;;;;;6.95;3.20;;;20.30;53.00;;;;;;5006485;28;20030;-62
2022/06/02 04:31:11;;;;;;;8.63;3.55;;;20.30;53.10;;;;;;5017171;28;20505;-62
2022/06/02 04:33:41;;;;;;;9.23;3.53;;;20.30;53.00;;;;;;5016147;28;20111;-62
2022/06/02 04:36:13;;;;;;;9.60;3.40;;;20.30;53.00;;;;;;5007127;28;20195;-62
2022/06/02 04:38:59;;;;;;;10.00;3.72;;;20.30;53.00;;;;;;5019060;28;20068;-63
2022/06/02 04:41:34;;;;;;;10.95;3.60;;;20.30;53.10;;;;;;5011175;28;20041;-63
2022/06/02 04:44:27;;;;;;;8.32;3.30;;;20.30;53.10;;;;;;5035424;28;20040;-63
2022/06/02 04:46:59;;;;;;;8.70;3.25;;;20.30;53.10;;;;;;5058713;28;20027;-62
2022/06/02 04:49:31;;;;;;;11.98;3.85;;;20.30;53.20;;;;;;5059059;28;20122;-62
2022/06/02 04:52:28;;;;;;;10.63;3.90;;;20.30;53.20;;;;;;5065512;28;20336;-62
2022/06/02 04:55:14;;;;;;;8.32;3.13;;;20.30;53.30;;;;;;5061084;28;20087;-61
2022/06/02 04:57:45;;;;;;;7.47;3.58;;;20.30;53.40;;;;;;5054416;28;20039;-61
2022/06/02 05:00:31;;;;;;;13.60;3.85;;;20.30;53.40;;;;;;5061589;28;20547;-61
2022/06/02 05:02:59;;;;;;;11.70;3.50;;;20.30;53.40;;;;;;5075928;28;20024;-61
2022/06/02 05:05:52;;;;;;;10.25;3.42;;;20.30;53.40;;;;;;5059720;28;20040;-62
2022/06/02 05:08:43;;;;;;;11.48;3.83;;;20.30;53.50;;;;;;5046085;28;20040;-61
2022/06/02 05:11:27;;;;;;;13.25;3.60;;;20.30;53.60;;;;;;5066610;28;20044;-61
2022/06/02 05:14:12;;;;;;;9.20;3.20;;;20.20;53.70;;;;;;5062715;28;20021;-62
2022/06/02 05:17:15;;;;;;;7.47;3.20;;;20.30;53.70;;;;;;5057987;28;20036;-61
2022/06/02 05:20:00;;;;;;;8.27;3.08;;;20.20;53.80;;;;;;5048825;28;20480;-61
2022/06/02 05:22:50;;;;;;;13.65;3.28;;;20.20;54.00;;;;;;5048645;28;20040;-61
2022/06/02 05:25:23;;;;;;;11.80;3.65;;;20.30;54.10;;;;;;5059221;28;20024;-63
2022/06/02 05:28:16;;;;;;;11.05;3.78;;;20.30;54.50;;;;;;5059551;28;20028;-62
2022/06/02 05:31:23;;;;;;;9.05;3.28;;;20.30;54.30;;;;;;5062413;28;20032;-62
2022/06/02 05:34:13;;;;;;;10.57;3.30;;;20.30;54.30;;;;;;5051896;28;20033;-62
2022/06/02 05:36:50;;;;;;;12.85;3.28;;;20.20;54.30;;;;;;5053650;28;20464;-62
2022/06/02 05:39:37;;;;;;;13.55;3.90;;;20.20;54.50;;;;;;5049869;28;20049;-63
2022/06/02 05:42:09;;;;;;;14.32;3.25;;;20.20;54.50;;;;;;5055061;28;20509;-62
2022/06/02 05:45:00;;;;;;;10.18;3.38;;;20.20;54.50;;;;;;5057475;28;20559;-62
2022/06/02 05:47:47;;;;;;;11.35;3.28;;;20.20;54.50;;;;;;5048390;28;20041;-62
2022/06/02 05:50:40;;;;;;;11.77;3.40;;;20.20;54.40;;;;;;5053107;28;20036;-62
2022/06/02 05:53:23;;;;;;;10.55;3.28;;;20.20;54.40;;;;;;5051710;28;20045;-62
2022/06/02 05:56:03;;;;;;;9.98;3.35;;;20.20;54.50;;;;;;5046679;28;20033;-62
2022/06/02 05:58:47;;;;;;;10.95;3.30;;;20.20;54.40;;;;;;5049324;28;20116;-62
2022/06/02 06:01:50;;;;;;;11.02;3.13;;;20.20;54.50;;;;;;5052138;28;20519;-62
2022/06/02 06:04:31;;;;;;;10.88;3.15;;;20.20;54.30;;;;;;5047737;28;20041;-62
2022/06/02 06:07:09;;;;;;;9.20;3.40;;;20.20;54.40;;;;;;5056167;28;20078;-62
2022/06/02 06:09:41;;;;;;;12.20;3.30;;;20.20;54.40;;;;;;5063250;28;20396;-62
2022/06/02 06:12:33;;;;;;;9.52;3.30;;;20.20;54.50;;;;;;5060461;28;20037;-61
2022/06/02 06:15:19;;;;;;;12.32;3.47;;;20.20;54.50;;;;;;5054394;28;20028;-62
2022/06/02 06:17:52;;;;;;;9.68;3.05;;;20.20;54.50;;;;;;5058641;28;20119;-62
2022/06/02 06:20:46;;;;;;;11.93;3.15;;;20.20;54.40;;;;;;5040191;28;20041;-62
2022/06/02 06:23:20;;;;;;;10.85;3.63;;;20.20;54.40;;;;;;5053162;28;20064;-62
2022/06/02 06:25:59;;;;;;;10.90;3.55;;;20.20;54.30;;;;;;5044438;28;20043;-62
2022/06/02 06:28:25;;;;;;;11.32;3.17;;;20.20;54.30;;;;;;5041821;28;20249;-62
2022/06/02 06:31:03;;;;;;;9.65;3.20;;;20.20;54.20;;;;;;5042777;28;20512;-62
2022/06/02 06:33:54;;;;;;;12.38;3.15;;;20.20;54.20;;;;;;5050990;28;20041;-62
2022/06/02 06:36:38;;;;;;;7.38;3.20;;;20.20;54.20;;;;;;5054789;28;20131;-62
2022/06/02 06:39:16;;;;;;;11.40;3.40;;;20.20;54.10;;;;;;5057522;28;20037;-63
2022/06/02 06:41:54;;;;;;;10.20;3.00;;;20.20;54.10;;;;;;5052146;28;20024;-62
2022/06/02 06:44:29;;;;;;;10.80;3.53;;;20.20;54.00;;;;;;5057933;28;20032;-62
2022/06/02 06:47:24;;;;;;;11.55;3.20;;;20.20;54.00;;;;;;5037573;28;20024;-62
2022/06/02 06:50:20;;;;;;;10.23;3.30;;;20.20;54.00;;;;;;5048737;28;20048;-62
2022/06/02 06:52:51;;;;;;;;;;;20.30;54.00;;;;;;5054876;28;20737;-62
2022/06/02 06:55:41;;;;;;;7.53;3.08;;;20.30;53.90;;;;;;5066910;28;19919;-62
2022/06/02 06:58:26;;;;;;;9.57;2.90;;;20.30;54.00;;;;;;5064375;28;20032;-62
2022/06/02 07:01:03;;;;;;;8.07;3.03;;;20.30;54.10;;;;;;5074327;28;20029;-62
2022/06/02 07:03:38;;;;;;;8.13;3.03;;;20.20;54.10;;;;;;5058683;28;20394;-62
2022/06/02 07:06:33;;;;;;;9.45;3.00;;;20.20;54.00;;;;;;5065370;28;20552;-62
2022/06/02 07:09:14;;;;;;;7.10;2.70;;;20.30;54.00;;;;;;5060893;28;20024;-62
2022/06/02 07:15:46;;;;;;;8.85;2.90;;;20.20;54.00;;;;;;5037748;28;20714;-62
2022/06/02 07:18:26;;;;;;;10.10;3.15;;;20.30;54.00;;;;;;5021776;28;20036;-62
2022/06/02 07:21:19;;;;;;;13.23;3.45;;;20.30;54.00;;;;;;5027932;28;20454;-62
2022/06/02 07:24:08;;;;;;;9.95;2.80;;;20.30;54.00;;;;;;5029358;28;20033;-62
2022/06/02 07:27:01;;;;;;;9.15;3.00;;;20.30;54.00;;;;;;5026169;28;20049;-62
2022/06/02 07:29:37;;;;;;;9.50;3.25;;;20.30;53.90;;;;;;5013985;28;20140;-62
2022/06/02 07:32:15;;;;;;;9.15;3.10;;;20.30;54.00;;;;;;5031403;28;20425;-62
2022/06/02 07:34:44;;;;;;;8.85;2.80;;;20.40;54.10;;;;;;5042708;28;20140;-62
2022/06/02 07:37:31;;;;;;;10.60;3.17;;;20.30;54.00;;;;;;5036564;28;20039;-63
2022/06/02 07:40:45;;;;;;;9.90;3.13;;;20.40;54.20;;;;;;5026719;28;20103;-63
2022/06/02 07:43:20;;;;;;;8.15;3.25;;;20.40;54.20;;;;;;4992379;28;20400;-63
2022/06/02 07:46:21;;;;;;;9.00;3.03;;;20.40;54.20;;;;;;4998044;28;20046;-63
2022/06/02 07:48:50;;;;;;;9.27;3.38;;;20.40;54.20;;;;;;4999547;28;20064;-61
2022/06/02 07:51:23;;;;;;;7.82;3.10;;;20.40;54.30;;;;;;5001364;28;20225;-62
2022/06/02 07:54:04;;;;;;;9.10;3.20;;;20.40;54.30;;;;;;4999144;28;20034;-63
2022/06/02 07:56:44;;;;;;;8.40;3.25;;;20.40;54.30;;;;;;5001058;28;20048;-63
2022/06/02 07:59:48;;;;;;;8.13;3.28;;;20.40;54.30;;;;;;5008673;28;20091;-62
2022/06/02 08:02:48;;;;;;;13.88;3.40;;;20.40;54.30;;;;;;5001121;28;20038;-62
2022/06/02 08:05:19;;;;;;;9.10;3.30;;;20.40;54.20;;;;;;5010792;28;20046;-63
2022/06/02 08:07:56;;;;;;;6.97;2.85;;;20.40;54.40;;;;;;5008110;28;20045;-62
2022/06/02 08:10:39;;;;;;;8.82;2.80;;;20.50;54.40;;;;;;4999286;28;20083;-63
2022/06/02 08:13:26;;;;;;;8.63;3.05;;;20.40;54.40;;;;;;5009328;28;20507;-62
2022/06/02 08:16:12;;;;;;;8.13;3.25;;;20.50;54.40;;;;;;5016103;28;20021;-62
2022/06/02 08:18:46;;;;;;;6.97;2.70;;;20.50;54.30;;;;;;5027401;28;20133;-62
2022/06/02 08:21:36;;;;;;;9.13;3.47;;;20.50;54.40;;;;;;5044111;28;20037;-62
2022/06/02 08:24:11;;;;;;;8.10;3.30;;;20.50;54.40;;;;;;5021944;28;20044;-62
2022/06/02 08:26:58;;;;;;;7.38;2.97;;;20.50;54.40;;;;;;5042710;28;20075;-62
2022/06/02 08:29:41;;;;;;;8.05;2.90;;;20.50;54.50;;;;;;5043570;28;20417;-63
2022/06/02 08:32:24;;;;;;;8.45;3.15;;;20.50;54.50;;;;;;5040368;28;20120;-62
2022/06/02 08:35:17;;;;;;;7.43;3.03;;;20.50;54.40;;;;;;5042212;28;20029;-62
2022/06/02 08:37:43;;;;;;;7.68;3.22;;;20.50;54.30;;;;;;5022129;28;20103;-63
2022/06/02 08:40:33;;;;;;;7.47;2.95;;;20.60;54.40;;;;;;5051736;28;20061;-62
2022/06/02 08:43:28;;;;;;;8.27;3.08;;;20.60;54.40;;;;;;5064636;28;20029;-62
2022/06/02 08:46:22;;;;;;;7.82;2.92;;;20.60;54.40;;;;;;5055580;28;20041;-63
2022/06/02 08:49:10;;;;;;;8.53;3.13;;;20.60;54.40;;;;;;5058530;28;20468;-63
2022/06/02 08:51:56;;;;;;;7.72;2.85;;;20.60;54.20;;;;;;5057114;28;20303;-63
2022/06/02 08:54:32;;;;;;;9.27;3.33;;;20.60;54.20;;;;;;5054820;28;20033;-63
2022/06/02 08:57:16;;;;;;;6.95;2.63;;;20.60;54.20;;;;;;5057962;28;20505;-63
2022/06/02 09:00:19;;;;;;;8.48;3.00;;;20.70;54.20;;;;;;5044697;28;20417;-63
2022/06/02 09:03:05;;;;;;;8.50;3.15;;;20.70;54.20;;;;;;5056507;28;20024;-63
2022/06/02 09:05:48;;;;;;;8.45;3.17;;;20.70;54.20;;;;;;5053968;28;20440;-63
2022/06/02 09:08:29;;;;;;;7.72;3.35;;;20.80;54.20;;;;;;5052830;28;20127;-63
2022/06/02 09:10:57;;;;;;;7.45;2.80;;;20.80;54.10;;;;;;5056378;28;20028;-63
2022/06/02 09:13:38;;;;;;;9.10;2.83;;;20.80;54.10;;;;;;5050647;28;20135;-63
2022/06/02 09:16:21;;;;;;;4.90;2.45;;;20.90;54.10;;;;;;5053329;28;20025;-63
2022/06/02 09:18:55;;;;;;;8.25;2.97;;;20.90;54.00;;;;;;5051768;28;20045;-63
2022/06/02 09:21:21;;;;;;;7.00;2.90;;;20.90;54.00;;;;;;5052260;28;20731;-63
2022/06/02 09:23:55;;;;;;;8.07;3.00;;;20.90;53.90;;;;;;5051131;28;20025;-63
2022/06/02 09:26:52;;;;;;;7.40;2.90;;;20.90;53.90;;;;;;5054526;28;20261;-63
2022/06/02 09:29:43;;;;;;;6.50;2.85;;;20.90;53.90;;;;;;5055382;28;20428;-63
2022/06/02 09:32:30;;;;;;;7.45;3.08;;;20.90;54.90;;;;;;5056528;28;20107;-62
2022/06/02 09:35:13;;;;;;;6.97;3.00;;;20.90;53.90;;;;;;5067945;28;20028;-63
2022/06/02 09:38:00;;;;;;;7.03;2.88;;;21.00;54.00;;;;;;5076962;28;20021;-62
2022/06/02 09:40:43;;;;;;;6.55;2.70;;;21.00;53.90;;;;;;5058065;28;20025;-63
2022/06/02 09:43:13;;;;;;;7.20;2.95;;;21.00;53.80;;;;;;5055822;28;20063;-63
2022/06/02 09:45:57;;;;;;;8.40;2.80;;;21.00;53.90;;;;;;5055906;28;20036;-63
2022/06/02 09:48:47;;;;;;;7.73;3.00;;;21.00;53.90;;;;;;5057133;28;20072;-63
2022/06/02 09:51:22;;;;;;;7.40;2.80;;;21.00;53.90;;;;;;5063627;28;20405;-63
2022/06/02 09:54:26;;;;;;;8.20;3.10;;;21.00;53.80;;;;;;5062619;28;20047;-63
2022/06/02 10:00:11;;;;;;;;;;;21.10;53.90;;;;;;5063178;28;20090;-63
2022/06/02 10:03:27;;;;;;;7.05;3.15;;;21.10;53.90;;;;;;5074190;28;19912;-63
2022/06/02 10:06:12;;;;;;;7.38;2.95;;;21.10;53.80;;;;;;5060469;28;20612;-63
2022/06/02 10:09:15;;;;;;;5.03;2.40;;;21.10;53.90;;;;;;5060988;28;20020;-63
2022/06/02 10:15:29;;;;;;;5.97;2.42;;;21.20;53.80;;;;;;5072977;28;20105;-63
2022/06/02 10:18:32;;;;;;;6.72;2.58;;;21.20;53.80;;;;;;5062647;28;20135;-63
2022/06/02 10:21:46;;;;;;;8.40;2.55;;;21.20;53.80;;;;;;5042703;28;20060;-63
2022/06/02 10:24:49;;;;;;;8.38;2.67;;;21.20;53.80;;;;;;4944093;29;20535;-63
2022/06/02 10:27:40;;;;;;;6.22;2.55;;;21.20;53.90;;;;;;4942687;29;20093;-63
2022/06/02 10:30:49;;;;;;;6.13;2.58;;;21.20;53.90;;;;;;4944816;29;20066;-63
2022/06/02 10:33:40;;;;;;;6.35;2.83;;;21.20;53.90;;;;;;4906091;29;20076;-63
2022/06/02 10:36:24;;;;;;;5.35;2.50;;;21.30;53.90;;;;;;4901347;29;20036;-63
2022/06/02 10:39:17;;;;;;;6.55;2.40;;;21.30;53.80;;;;;;4881659;29;20043;-63
2022/06/02 10:42:15;;;;;;;5.93;2.65;;;21.30;53.80;;;;;;4909442;29;20047;-63
2022/06/02 10:44:40;;;;;;;6.43;2.50;;;21.40;53.80;;;;;;4910307;29;20032;-63
2022/06/02 10:47:17;;;;;;;7.47;2.40;;;21.40;53.70;;;;;;4905326;29;20124;-63
2022/06/02 10:49:44;;;;;;;6.07;2.50;;;21.40;53.80;;;;;;4908153;29;20040;-63
2022/06/02 10:52:31;;;;;;;7.30;2.60;;;21.40;53.70;;;;;;4904938;29;20423;-63
2022/06/02 10:55:34;;;;;;;5.05;2.40;;;21.40;53.70;;;;;;4911397;29;20052;-63
2022/06/02 10:58:17;;;;;;;5.57;2.70;;;21.40;53.70;;;;;;4927601;29;20046;-63
2022/06/02 11:01:12;;;;;;;7.43;2.88;;;21.40;53.70;;;;;;4943952;28;20084;-63
2022/06/02 11:04:13;;;;;;;5.63;2.30;;;21.40;53.60;;;;;;4985716;28;20411;-63
2022/06/02 11:06:57;;;;;;;6.88;2.90;;;21.50;53.50;;;;;;4993647;28;20037;-63
2022/06/02 11:09:50;;;;;;;6.05;2.70;;;21.50;53.80;;;;;;5020907;28;20639;-63
2022/06/02 11:12:42;;;;;;;5.57;2.42;;;21.50;53.60;;;;;;5068449;28;20102;-63
2022/06/02 11:15:24;;;;;;;6.40;2.42;;;21.60;53.70;;;;;;5074270;28;20371;-63
2022/06/02 11:18:20;;;;;;;5.63;2.72;;;21.60;53.60;;;;;;5068154;28;20387;-63
2022/06/02 11:21:20;;;;;;;5.57;2.30;;;21.60;53.60;;;;;;5061479;28;20480;-63
2022/06/02 11:23:58;;;;;;;5.43;2.35;;;21.60;53.50;;;;;;5021265;28;20064;-63
2022/06/02 11:26:58;;;;;;;5.05;2.50;;;21.60;53.50;;;;;;5024152;28;20486;-63
2022/06/02 11:29:29;;;;;;;6.00;2.35;;;21.60;53.70;;;;;;5019912;28;20026;-63
2022/06/02 11:32:13;;;;;;;5.65;2.72;;;21.70;53.70;;;;;;5015262;28;20116;-63
2022/06/02 11:35:09;;;;;;;5.13;2.25;;;21.70;53.60;;;;;;5007005;28;20042;-63
2022/06/02 11:37:43;;;;;;;4.95;2.38;;;21.70;53.70;;;;;;5023269;28;20044;-63
2022/06/02 11:40:25;;;;;;;5.93;2.63;;;21.80;53.50;;;;;;5022031;28;20076;-63
2022/06/02 11:42:56;;;;;;;6.35;2.97;;;21.80;53.50;;;;;;5027541;28;20075;-63
2022/06/02 11:45:46;;;;;;;5.07;2.33;;;21.80;53.50;;;;;;5027301;28;20026;-63
2022/06/02 11:48:30;;;;;;;5.95;2.53;;;21.80;53.50;;;;;;5020539;28;20047;-63
2022/06/02 11:51:08;;;;;;;6.20;2.53;;;21.90;53.60;;;;;;5023086;28;20759;-63
2022/06/02 11:54:21;;;;;;;5.40;2.63;;;21.90;53.40;;;;;;5022796;28;20037;-63
2022/06/02 11:56:59;;;;;;;6.18;2.30;;;21.90;53.30;;;;;;4989451;28;20415;-62
2022/06/02 11:59:24;;;;;;;5.65;2.40;;;22.00;53.50;;;;;;4998528;28;20034;-63
2022/06/02 12:02:22;;;;;;;5.32;2.35;;;22.00;53.50;;;;;;5011442;28;20044;-63
2022/06/02 12:05:07;;;;;;;6.07;2.50;;;22.00;53.30;;;;;;5003244;28;20102;-63
2022/06/02 12:07:51;;;;;;;6.90;2.83;;;22.00;53.40;;;;;;5006789;28;20054;-63
2022/06/02 12:10:26;;;;;;;4.65;2.40;;;22.00;53.40;;;;;;5010830;28;20038;-63
2022/06/02 12:13:26;;;;;;;4.93;2.22;;;22.10;53.20;;;;;;5014951;28;20130;-63
2022/06/02 12:16:33;;;;;;;5.03;2.50;;;22.10;53.30;;;;;;4990065;28;20030;-64
2022/06/02 12:19:17;;;;;;;6.15;2.30;;;22.10;53.30;;;;;;5005676;28;20174;-63
2022/06/02 12:22:04;;;;;;;6.82;2.85;;;22.10;53.40;;;;;;5009435;28;20113;-63
2022/06/02 12:24:39;;;;;;;6.47;2.55;;;22.10;53.30;;;;;;5011954;28;20037;-64
2022/06/02 12:27:15;;;;;;;;;;;22.20;53.20;;;;;;5007046;28;20038;-64
2022/06/02 12:30:00;;;;;;;5.75;2.53;;;22.20;53.20;;;;;;5008345;28;19960;-63
2022/06/02 12:32:31;;;;;;;4.50;2.47;;;22.20;53.30;;;;;;5028448;28;20051;-63
2022/06/02 12:35:27;;;;;;;5.40;2.35;;;22.20;53.30;;;;;;5056636;28;20024;-64
2022/06/02 12:38:05;;;;;;;6.50;2.60;;;22.30;53.30;;;;;;5060051;28;20032;-63
2022/06/02 12:40:36;;;;;;;6.70;2.60;;;22.30;53.10;;;;;;5059489;28;20028;-63
2022/06/02 12:43:23;;;;;;;5.43;2.35;;;22.30;53.30;;;;;;5072724;28;20039;-63
2022/06/02 12:46:29;;;;;;;5.80;2.42;;;22.30;54.30;;;;;;5061984;28;20115;-64
2022/06/02 12:49:28;;;;;;;7.25;2.38;;;22.30;53.20;;;;;;5044967;28;20158;-65
2022/06/02 12:52:20;;;;;;;4.53;2.03;;;22.30;53.30;;;;;;5053298;28;20045;-65
2022/06/02 12:54:54;;;;;;;4.70;2.28;;;22.40;53.20;;;;;;5048219;28;20021;-64
2022/06/02 12:58:00;;;;;;;3.85;2.05;;;22.40;53.20;;;;;;5043178;28;20033;-64
2022/06/02 13:00:38;;;;;;;5.65;2.20;;;22.40;53.20;;;;;;4982665;28;20597;-64
2022/06/02 13:03:09;;;;;;;3.95;2.20;;;22.50;53.00;;;;;;4979773;28;20099;-63
2022/06/02 13:05:53;;;;;;;5.50;2.40;;;22.50;53.00;;;;;;4985802;28;20034;-64
2022/06/02 13:08:37;;;;;;;3.97;2.25;;;22.60;53.40;;;;;;4988542;28;20115;-64
2022/06/02 13:11:27;;;;;;;3.95;2.17;;;22.60;53.30;;;;;;4968869;28;20081;-64
2022/06/02 13:14:11;;;;;;;5.90;2.58;;;22.70;53.40;;;;;;4986075;28;20057;-64
2022/06/02 13:16:49;;;;;;;6.78;2.20;;;22.70;53.30;;;;;;4983475;28;20031;-64
2022/06/02 13:19:37;;;;;;;6.03;2.58;;;22.70;53.20;;;;;;4991181;28;20047;-64
2022/06/02 13:22:42;;;;;;;3.97;2.15;;;22.80;53.20;;;;;;4969849;28;20076;-64
2022/06/02 13:25:26;;;;;;;5.15;2.47;;;22.80;53.10;;;;;;4955991;28;20073;-63
2022/06/02 13:28:11;;;;;;;5.07;2.37;;;22.80;53.10;;;;;;4982767;28;20042;-64
2022/06/02 13:30:57;;;;;;;4.90;2.45;;;22.90;53.10;;;;;;4982678;28;20137;-65
2022/06/02 13:33:41;;;;;;;5.07;2.58;;;22.90;53.10;;;;;;4981250;28;20038;-64
2022/06/02 13:36:15;;;;;;;4.97;2.50;;;22.90;53.10;;;;;;5021590;28;20044;-63
2022/06/02 13:38:52;;;;;;;4.90;2.40;;;22.90;53.00;;;;;;5009485;28;20033;-64
2022/06/02 13:41:39;;;;;;;5.82;2.42;;;22.90;53.10;;;;;;5019159;28;20033;-64
2022/06/02 13:44:13;;;;;;;6.85;2.65;;;22.90;53.20;;;;;;5023109;28;20037;-64
2022/06/02 13:47:06;;;;;;;6.60;2.80;;;22.90;53.10;;;;;;5022167;28;20036;-64
2022/06/02 13:49:41;;;;;;;6.05;2.70;;;23.00;53.00;;;;;;5003060;28;20041;-64
2022/06/02 13:52:30;;;;;;;4.75;2.35;;;23.00;53.00;;;;;;5022098;28;20049;-64
2022/06/02 13:58:31;;;;;;;5.88;2.40;;;23.00;52.90;;;;;;5012569;28;20041;-64
2022/06/02 14:01:38;;;;;;;6.15;2.70;;;23.00;52.90;;;;;;5010046;28;20121;-64
2022/06/02 14:04:14;;;;;;;6.60;2.60;;;23.00;52.90;;;;;;5070333;28;20102;-64
2022/06/02 14:06:45;;;;;;;7.18;2.88;;;23.10;52.90;;;;;;5078310;28;20025;-64
2022/06/02 14:09:36;;;;;;;8.27;2.50;;;23.10;52.70;;;;;;5064023;28;20554;-65
2022/06/02 14:12:33;;;;;;;11.05;2.88;;;23.10;52.80;;;;;;5060892;28;20390;-64
2022/06/02 14:15:36;;;;;;;7.43;2.80;;;23.10;52.60;;;;;;5076677;28;20024;-64
2022/06/02 14:18:35;;;;;;;6.07;2.80;;;23.10;52.40;;;;;;5055516;28;20037;-64
2022/06/02 14:21:13;;;;;;;10.68;3.28;;;23.10;52.10;;;;;;5062769;28;20048;-64
2022/06/02 14:23:48;;;;;;;11.73;3.30;;;23.10;52.10;;;;;;5054562;28;20031;-64
2022/06/02 14:26:21;;;;;;;9.70;3.30;;;23.10;51.90;;;;;;5062075;28;20042;-64
2022/06/02 14:29:05;;;;;;;11.00;3.35;;;23.20;51.60;;;;;;5068390;28;20528;-64
2022/06/02 14:32:05;;;;;;;10.25;3.38;;;23.20;51.40;;;;;;5053968;28;20037;-64
2022/06/02 14:34:39;;;;;;;10.15;3.47;;;23.20;51.10;;;;;;5059086;28;20121;-64